createdAt,value
2022-10-22T00:00:39.768Z,15.37
2022-10-22T00:03:42.451Z,15.37
2022-10-22T00:06:45.197Z,15.38
2022-10-22T00:09:48.567Z,15.35
2022-10-22T00:12:51.287Z,15.36
2022-10-22T00:15:55.301Z,15.36
2022-10-22T00:18:58.065Z,15.35
2022-10-22T00:22:00.909Z,15.35
2022-10-22T00:25:03.579Z,15.34
2022-10-22T00:28:06.568Z,15.35
2022-10-22T00:31:10.748Z,15.33
2022-10-22T00:34:13.412Z,15.31
2022-10-22T00:37:16.060Z,15.30
2022-10-22T00:40:18.937Z,15.30
2022-10-22T00:43:21.811Z,15.29
2022-10-22T00:46:25.860Z,15.26
2022-10-22T00:49:28.571Z,15.22
2022-10-22T00:52:31.137Z,15.22
2022-10-22T00:55:34.341Z,15.17
2022-10-22T00:58:43.754Z,15.16
2022-10-22T01:01:48.041Z,15.14
2022-10-22T01:04:50.861Z,15.09
2022-10-22T01:07:54.958Z,15.08
2022-10-22T01:11:09.138Z,15.05
2022-10-22T01:14:21.802Z,15.02
2022-10-22T01:17:34.020Z,15.02
2022-10-22T01:20:56.190Z,14.97
2022-10-22T01:24:32.920Z,14.96
2022-10-22T01:27:45.882Z,14.96
2022-10-22T01:30:53.621Z,14.99
2022-10-22T01:33:56.405Z,14.98
2022-10-22T01:37:01.424Z,14.96
2022-10-22T01:40:06.447Z,14.96
2022-10-22T01:43:11.586Z,14.96
2022-10-22T01:46:18.076Z,14.97
2022-10-22T01:49:29.329Z,14.97
2022-10-22T01:52:46.340Z,14.96
2022-10-22T01:56:00.197Z,14.93
2022-10-22T01:59:09.054Z,14.88
2022-10-22T02:02:18.461Z,14.85
2022-10-22T02:05:24.264Z,14.85
2022-10-22T02:08:32.257Z,14.81
2022-10-22T02:11:35.444Z,14.81
2022-10-22T02:14:42.570Z,14.79
2022-10-22T02:17:48.220Z,14.75
2022-10-22T02:20:51.585Z,14.73
2022-10-22T02:23:54.303Z,14.73
2022-10-22T02:27:03.964Z,14.72
2022-10-22T02:30:09.723Z,14.70
2022-10-22T02:33:20.488Z,14.72
2022-10-22T02:36:24.859Z,14.75
2022-10-22T02:39:28.419Z,14.72
2022-10-22T02:42:31.601Z,14.72
2022-10-22T02:45:35.581Z,14.70
2022-10-22T02:48:39.514Z,14.69
2022-10-22T02:51:42.224Z,14.68
2022-10-22T02:54:44.976Z,14.66
2022-10-22T02:57:47.534Z,14.63
2022-10-22T03:00:50.445Z,14.62
2022-10-22T03:03:54.369Z,14.61
2022-10-22T03:06:57.328Z,14.60
2022-10-22T03:10:00.079Z,14.59
2022-10-22T03:13:02.929Z,14.58
2022-10-22T03:16:06.096Z,14.59
2022-10-22T03:19:10.032Z,14.61
2022-10-22T03:22:16.727Z,14.60
2022-10-22T03:25:21.958Z,14.60
2022-10-22T03:28:24.530Z,14.59
2022-10-22T03:31:27.308Z,14.57
2022-10-22T03:34:31.216Z,14.58
2022-10-22T03:37:35.041Z,14.57
2022-10-22T03:40:37.831Z,14.58
2022-10-22T03:43:40.887Z,14.57
2022-10-22T03:46:43.581Z,14.55
2022-10-22T03:49:47.490Z,14.54
2022-10-22T03:52:50.225Z,14.55
2022-10-22T03:55:52.874Z,14.55
2022-10-22T03:58:57.501Z,14.54
2022-10-22T04:02:00.154Z,14.55
2022-10-22T04:05:04.211Z,14.54
2022-10-22T04:08:06.932Z,14.54
2022-10-22T04:11:10.458Z,14.54
2022-10-22T04:14:13.067Z,14.53
2022-10-22T04:17:16.075Z,14.52
2022-10-22T04:20:19.969Z,14.49
2022-10-22T04:23:23.153Z,14.45
2022-10-22T04:26:26.339Z,14.46
2022-10-22T04:29:28.895Z,14.43
2022-10-22T04:32:31.728Z,14.42
2022-10-22T04:35:39.510Z,14.40
2022-10-22T04:38:43.413Z,14.40
2022-10-22T04:41:48.411Z,14.37
2022-10-22T04:44:51.046Z,14.37
2022-10-22T04:47:53.741Z,14.37
2022-10-22T04:51:00.723Z,14.37
2022-10-22T04:54:03.422Z,14.36
2022-10-22T04:57:06.133Z,14.36
2022-10-22T05:00:09.867Z,14.35
2022-10-22T05:03:12.594Z,14.33
2022-10-22T05:06:17.089Z,14.31
2022-10-22T05:09:22.132Z,14.31
2022-10-22T05:12:24.839Z,14.30
2022-10-22T05:15:27.377Z,14.29
2022-10-22T05:18:30.045Z,14.29
2022-10-22T05:21:34.410Z,14.30
2022-10-22T05:24:38.009Z,14.29
2022-10-22T05:27:40.962Z,14.27
2022-10-22T05:30:43.730Z,14.25
2022-10-22T05:33:47.270Z,14.24
2022-10-22T05:36:51.176Z,14.22
2022-10-22T05:40:01.848Z,14.20
2022-10-22T05:43:15.518Z,14.17
2022-10-22T05:46:22.456Z,14.18
2022-10-22T05:49:25.641Z,14.18
2022-10-22T05:52:29.541Z,14.16
2022-10-22T05:55:36.992Z,14.10
2022-10-22T05:58:40.490Z,14.08
2022-10-22T06:01:43.093Z,14.11
2022-10-22T06:04:45.906Z,14.14
2022-10-22T06:07:49.881Z,14.12
2022-10-22T06:10:52.700Z,14.16
2022-10-22T06:13:55.378Z,14.18
2022-10-22T06:17:00.778Z,14.23
2022-10-22T06:23:12.316Z,14.24
2022-10-22T06:26:15.501Z,14.26
2022-10-22T06:29:18.433Z,14.26
2022-10-22T06:32:20.987Z,14.28
2022-10-22T06:35:23.668Z,14.30
2022-10-22T06:38:27.554Z,14.32
2022-10-22T06:41:30.423Z,14.38
2022-10-22T06:44:33.772Z,14.43
2022-10-22T06:47:36.288Z,14.50
2022-10-22T06:50:38.975Z,14.53
2022-10-22T06:53:42.987Z,14.57
2022-10-22T06:56:45.743Z,14.61
2022-10-22T06:59:48.536Z,14.68
2022-10-22T07:02:57.784Z,14.77
2022-10-22T07:06:04.429Z,14.82
2022-10-22T07:09:08.450Z,14.91
2022-10-22T07:12:11.360Z,14.99
2022-10-22T07:15:14.138Z,15.05
2022-10-22T07:18:16.691Z,15.09
2022-10-22T07:21:20.530Z,15.16
2022-10-22T07:24:24.553Z,15.20
2022-10-22T07:27:27.228Z,15.25
2022-10-22T07:30:29.809Z,15.29
2022-10-22T07:33:32.902Z,15.33
2022-10-22T07:36:35.642Z,15.35
2022-10-22T07:39:39.601Z,15.38
2022-10-22T07:42:42.282Z,15.35
2022-10-22T07:45:44.988Z,15.33
2022-10-22T07:48:47.675Z,15.44
2022-10-22T07:51:50.400Z,15.36
2022-10-22T07:54:54.298Z,15.84
2022-10-22T07:57:56.955Z,16.33
2022-10-22T08:01:01.481Z,16.84
2022-10-22T08:04:04.077Z,17.01
2022-10-22T08:07:06.939Z,16.70
2022-10-22T08:10:12.524Z,16.52
2022-10-22T08:13:16.141Z,16.42
2022-10-22T08:16:18.837Z,16.25
2022-10-22T08:19:21.374Z,16.12
2022-10-22T08:22:24.097Z,15.99
2022-10-22T08:25:28.587Z,15.99
2022-10-22T08:28:33.038Z,15.90
2022-10-22T08:31:35.827Z,15.93
2022-10-22T08:34:38.403Z,15.97
2022-10-22T08:37:41.429Z,16.04
2022-10-22T08:40:49.942Z,16.13
2022-10-22T08:44:20.290Z,16.15
2022-10-22T08:47:38.953Z,16.10
2022-10-22T08:50:44.132Z,16.08
2022-10-22T08:53:59.625Z,16.15
2022-10-22T08:57:17.860Z,16.12
2022-10-22T09:00:25.362Z,16.13
2022-10-22T09:03:46.659Z,16.10
2022-10-22T09:06:53.491Z,16.03
2022-10-22T09:10:00.794Z,16.04
2022-10-22T09:13:05.251Z,16.07
2022-10-22T09:16:16.834Z,16.18
2022-10-22T09:19:26.767Z,16.20
2022-10-22T09:22:37.485Z,16.25
2022-10-22T09:25:41.133Z,16.23
2022-10-22T09:28:45.200Z,16.36
2022-10-22T09:31:47.920Z,16.29
2022-10-22T09:34:51.574Z,16.43
2022-10-22T09:38:00.703Z,16.62
2022-10-22T09:41:03.763Z,16.53
2022-10-22T09:44:08.511Z,16.46
2022-10-22T09:47:42.739Z,16.49
2022-10-22T09:50:48.376Z,16.60
2022-10-22T09:53:58.104Z,16.58
2022-10-22T09:57:07.293Z,16.64
2022-10-22T10:00:13.517Z,16.58
2022-10-22T10:03:22.357Z,16.60
2022-10-22T10:06:25.208Z,16.55
2022-10-22T10:09:37.355Z,16.60
2022-10-22T10:12:47.783Z,16.75
2022-10-22T10:15:58.904Z,17.01
2022-10-22T10:19:18.541Z,17.26
2022-10-22T10:22:34.808Z,17.24
2022-10-22T10:25:47.332Z,17.27
2022-10-22T10:29:01.437Z,17.20
2022-10-22T10:32:21.139Z,17.14
2022-10-22T10:35:29.300Z,17.37
2022-10-22T10:38:55.139Z,17.54
2022-10-22T10:42:08.635Z,17.73
2022-10-22T10:45:18.759Z,18.05
2022-10-22T10:48:34.192Z,17.90
2022-10-22T10:51:43.413Z,18.24
2022-10-22T10:54:52.488Z,18.63
2022-10-22T10:58:05.210Z,18.34
2022-10-22T11:01:16.600Z,18.30
2022-10-22T11:04:52.522Z,18.42
2022-10-22T11:08:00.785Z,18.49
2022-10-22T11:11:08.302Z,18.35
2022-10-22T11:14:14.844Z,18.96
2022-10-22T11:17:19.744Z,19.12
2022-10-22T11:20:31.540Z,19.49
2022-10-22T11:23:39.094Z,20.18
2022-10-22T11:26:47.774Z,20.20
2022-10-22T11:29:54.963Z,20.53
2022-10-22T11:33:01.676Z,20.35
2022-10-22T11:36:08.676Z,19.99
2022-10-22T11:39:36.532Z,20.20
2022-10-22T11:42:43.262Z,20.57
2022-10-22T11:45:51.481Z,20.28
2022-10-22T11:49:06.915Z,19.68
2022-10-22T11:52:28.053Z,19.56
2022-10-22T11:55:46.088Z,20.25
2022-10-22T11:58:53.751Z,20.52
2022-10-22T12:01:57.647Z,20.82
2022-10-22T12:05:34.913Z,20.97
2022-10-22T12:08:45.346Z,21.24
2022-10-22T12:11:51.235Z,21.17
2022-10-22T12:14:57.277Z,20.99
2022-10-22T12:18:02.282Z,20.58
2022-10-22T12:21:05.079Z,20.66
2022-10-22T12:24:15.183Z,20.63
2022-10-22T12:27:23.312Z,20.46
2022-10-22T12:30:28.889Z,20.65
2022-10-22T12:33:32.681Z,20.88
2022-10-22T12:36:37.314Z,21.03
2022-10-22T12:39:41.365Z,20.96
2022-10-22T12:42:48.905Z,20.98
2022-10-22T12:45:52.646Z,20.56
2022-10-22T12:48:55.931Z,20.51
2022-10-22T12:52:02.206Z,20.60
2022-10-22T12:55:08.416Z,20.45
2022-10-22T12:58:18.710Z,20.37
2022-10-22T13:01:21.700Z,20.04
2022-10-22T13:04:33.958Z,20.09
2022-10-22T13:07:40.075Z,20.09
2022-10-22T13:10:51.671Z,19.91
2022-10-22T13:14:02.876Z,20.06
2022-10-22T13:17:08.315Z,19.89
2022-10-22T13:20:19.648Z,19.89
2022-10-22T13:23:23.873Z,19.92
2022-10-22T13:26:33.556Z,19.89
2022-10-22T13:29:38.191Z,19.91
2022-10-22T13:35:44.304Z,19.83
2022-10-22T13:38:46.912Z,19.84
2022-10-22T13:41:51.442Z,19.74
2022-10-22T13:44:54.004Z,19.63
2022-10-22T13:47:57.060Z,19.53
2022-10-22T13:50:59.702Z,19.53
2022-10-22T13:54:03.801Z,19.48
2022-10-22T13:57:09.978Z,19.41
2022-10-22T14:00:15.086Z,19.40
2022-10-22T14:03:20.960Z,19.28
2022-10-22T14:06:24.011Z,19.37
2022-10-22T14:09:26.730Z,19.51
2022-10-22T14:12:31.741Z,19.33
2022-10-22T14:15:35.469Z,19.31
2022-10-22T14:18:38.150Z,19.29
2022-10-22T14:21:40.875Z,19.29
2022-10-22T14:24:43.565Z,19.28
2022-10-22T14:27:47.605Z,19.29
2022-10-22T14:30:51.233Z,19.32
2022-10-22T14:33:53.931Z,19.21
2022-10-22T14:36:56.484Z,19.19
2022-10-22T14:40:02.484Z,19.20
2022-10-22T14:43:06.950Z,19.20
2022-10-22T14:46:11.944Z,19.24
2022-10-22T14:49:14.761Z,19.18
2022-10-22T14:52:17.439Z,19.03
2022-10-22T14:55:21.199Z,18.96
2022-10-22T14:58:25.098Z,18.90
2022-10-22T15:01:27.759Z,18.91
2022-10-22T15:04:30.542Z,18.81
2022-10-22T15:07:33.423Z,18.74
2022-10-22T15:10:36.130Z,18.73
2022-10-22T15:13:41.230Z,18.70
2022-10-22T15:16:43.773Z,18.66
2022-10-22T15:19:46.543Z,18.66
2022-10-22T15:22:49.156Z,18.61
2022-10-22T15:25:51.804Z,18.55
2022-10-22T15:28:56.276Z,18.47
2022-10-22T15:31:59.475Z,18.39
2022-10-22T15:35:02.741Z,18.30
2022-10-22T15:38:06.523Z,18.25
2022-10-22T15:41:12.516Z,18.21
2022-10-22T15:44:18.517Z,18.11
2022-10-22T15:47:21.216Z,18.00
2022-10-22T15:50:23.825Z,17.89
2022-10-22T15:53:26.398Z,17.80
2022-10-22T15:56:30.164Z,17.72
2022-10-22T15:59:34.090Z,17.66
2022-10-22T16:02:36.718Z,17.59
2022-10-22T16:05:39.405Z,17.49
2022-10-22T16:08:41.999Z,17.43
2022-10-22T16:11:45.128Z,17.36
2022-10-22T16:14:51.109Z,17.27
2022-10-22T16:17:53.671Z,17.18
2022-10-22T16:20:56.237Z,17.09
2022-10-22T16:24:05.996Z,17.01
2022-10-22T16:27:09.775Z,16.92
2022-10-22T16:30:14.653Z,16.88
2022-10-22T16:33:17.344Z,16.80
2022-10-22T16:36:21.431Z,16.74
2022-10-22T16:39:24.493Z,16.67
2022-10-22T16:42:27.213Z,16.61
2022-10-22T16:45:31.182Z,16.55
2022-10-22T16:48:34.315Z,16.46
2022-10-22T16:51:37.401Z,16.40
2022-10-22T16:54:40.009Z,16.37
2022-10-22T16:57:42.970Z,16.33
2022-10-22T17:00:47.092Z,16.29
2022-10-22T17:03:49.835Z,16.29
2022-10-22T17:06:52.510Z,16.29
2022-10-22T17:09:55.064Z,16.26
2022-10-22T17:12:57.804Z,16.21
2022-10-22T17:16:03.877Z,16.24
2022-10-22T17:19:06.641Z,16.20
2022-10-22T17:22:09.321Z,16.19
2022-10-22T17:25:14.766Z,16.20
2022-10-22T17:28:17.479Z,16.13
2022-10-22T17:31:23.450Z,16.11
2022-10-22T17:34:27.236Z,16.09
2022-10-22T17:37:30.173Z,16.05
2022-10-22T17:40:32.763Z,16.02
2022-10-22T17:43:36.572Z,15.98
2022-10-22T17:46:40.805Z,15.99
2022-10-22T17:49:43.541Z,15.91
2022-10-22T17:52:46.423Z,15.88
2022-10-22T17:55:48.994Z,15.85
2022-10-22T17:58:52.393Z,15.83
2022-10-22T18:01:59.482Z,15.80
2022-10-22T18:05:02.825Z,15.80
2022-10-22T18:08:07.833Z,15.82
2022-10-22T18:11:13.006Z,15.86
2022-10-22T18:14:15.713Z,15.89
2022-10-22T18:17:19.629Z,15.86
2022-10-22T18:20:22.357Z,15.95
2022-10-22T18:23:24.952Z,15.97
2022-10-22T18:26:27.601Z,15.95
2022-10-22T18:29:30.368Z,15.91
2022-10-22T18:32:34.977Z,15.90
2022-10-22T18:35:37.813Z,15.88
2022-10-22T18:38:40.815Z,15.86
2022-10-22T18:41:43.643Z,15.84
2022-10-22T18:44:46.382Z,15.79
2022-10-22T18:47:50.364Z,15.77
2022-10-22T18:51:00.854Z,15.73
2022-10-22T18:54:05.817Z,15.67
2022-10-22T18:57:14.201Z,15.65
2022-10-22T19:00:17.620Z,15.61
2022-10-22T19:03:24.403Z,15.53
2022-10-22T19:06:34.477Z,15.46
2022-10-22T19:09:40.822Z,15.41
2022-10-22T19:12:43.624Z,15.36
2022-10-22T19:15:46.388Z,15.32
2022-10-22T19:18:50.954Z,15.27
2022-10-22T19:21:56.524Z,15.25
2022-10-22T19:24:59.242Z,15.22
2022-10-22T19:28:01.966Z,15.17
2022-10-22T19:31:06.040Z,15.15
2022-10-22T19:34:11.088Z,15.12
2022-10-22T19:37:13.880Z,15.12
2022-10-22T19:40:16.635Z,15.10
2022-10-22T19:43:19.267Z,15.08
2022-10-22T19:46:23.566Z,15.13
2022-10-22T19:49:27.632Z,15.09
2022-10-22T19:52:30.346Z,15.09
2022-10-22T19:55:32.971Z,15.31
2022-10-22T19:58:35.830Z,15.30
2022-10-22T20:01:39.132Z,15.31
2022-10-22T20:04:45.665Z,15.39
2022-10-22T20:07:51.739Z,15.38
2022-10-22T20:10:54.410Z,15.46
2022-10-22T20:13:57.517Z,15.48
2022-10-22T20:17:00.452Z,15.54
2022-10-22T20:20:05.136Z,15.57
2022-10-22T20:23:08.694Z,15.57
2022-10-22T20:26:12.779Z,15.56
2022-10-22T20:29:16.072Z,15.51
2022-10-22T20:32:18.784Z,15.49
2022-10-22T20:35:22.686Z,15.40
2022-10-22T20:38:25.316Z,15.47
2022-10-22T20:41:28.269Z,15.45
2022-10-22T20:44:33.655Z,15.44
2022-10-22T20:47:50.905Z,15.34
2022-10-22T20:50:55.841Z,15.35
2022-10-22T20:53:58.798Z,15.36
2022-10-22T20:57:02.069Z,15.39
2022-10-22T21:00:05.255Z,15.41
2022-10-22T21:03:08.004Z,15.40
2022-10-22T21:06:11.915Z,15.33
2022-10-22T21:09:15.867Z,15.41
2022-10-22T21:12:18.658Z,15.44
2022-10-22T21:15:21.315Z,15.50
2022-10-22T21:18:24.039Z,15.42
2022-10-22T21:21:28.031Z,15.44
2022-10-22T21:24:30.898Z,15.46
2022-10-22T21:27:34.381Z,15.49
2022-10-22T21:30:36.970Z,15.46
2022-10-22T21:33:40.545Z,15.46
2022-10-22T21:36:44.905Z,15.41
2022-10-22T21:39:47.588Z,15.44
2022-10-22T21:42:51.402Z,15.32
2022-10-22T21:46:07.743Z,15.31
2022-10-22T21:49:11.166Z,15.32
2022-10-22T21:52:15.134Z,15.29
2022-10-22T21:55:17.980Z,15.28
2022-10-22T21:58:20.684Z,15.34
2022-10-22T22:01:23.916Z,15.24
2022-10-22T22:04:27.125Z,15.24
2022-10-22T22:07:31.019Z,15.21
2022-10-22T22:10:33.708Z,15.17
2022-10-22T22:13:37.168Z,15.15
2022-10-22T22:16:40.618Z,15.04
2022-10-22T22:19:43.853Z,15.01
2022-10-22T22:22:47.757Z,14.99
2022-10-22T22:25:50.567Z,14.97
2022-10-22T22:28:53.252Z,14.95
2022-10-22T22:31:56.205Z,14.93
2022-10-22T22:34:58.881Z,14.87
2022-10-22T22:38:02.804Z,14.82
2022-10-22T22:41:06.130Z,14.74
2022-10-22T22:44:12.932Z,14.73
2022-10-22T22:47:15.504Z,14.66
2022-10-22T22:50:18.337Z,14.61
2022-10-22T22:53:22.309Z,14.56
2022-10-22T22:56:28.805Z,14.53
2022-10-22T22:59:31.510Z,14.47
2022-10-22T23:02:34.085Z,14.42
2022-10-22T23:05:37.615Z,14.37
2022-10-22T23:08:42.183Z,14.30
2022-10-22T23:11:46.846Z,14.26
2022-10-22T23:14:51.212Z,14.22
2022-10-22T23:17:53.798Z,14.21
2022-10-22T23:20:56.483Z,14.14
2022-10-22T23:24:02.977Z,14.09
2022-10-22T23:27:05.914Z,14.01
2022-10-22T23:30:10.243Z,13.96
2022-10-22T23:33:13.162Z,13.97
2022-10-22T23:36:16.143Z,13.91
2022-10-22T23:39:22.591Z,13.94
2022-10-22T23:42:25.260Z,13.92
2022-10-22T23:45:28.014Z,13.90
2022-10-22T23:48:30.551Z,13.86
2022-10-22T23:51:33.374Z,13.90
2022-10-22T23:54:37.279Z,13.94
2022-10-22T23:57:39.953Z,13.85
